sensor_id;sensor_type;location;lat;lon;timestamp;pressure;altitude;pressure_sealevel;temperature;humidity
68456;BME280;55437;55.046;38.838;2023-05-24T00:02:08;99948.91;;;16.99;65.72
68456;BME280;55437;55.046;38.838;2023-05-24T00:04:33;99946.47;;;16.96;65.84
68456;BME280;55437;55.046;38.838;2023-05-24T00:07:00;99937.78;;;16.97;65.80
68456;BME280;55437;55.046;38.838;2023-05-24T00:09:29;99935.25;;;16.96;65.97
68456;BME280;55437;55.046;38.838;2023-05-24T00:11:55;99937.84;;;16.96;66.14
68456;BME280;55437;55.046;38.838;2023-05-24T00:14:21;99933.59;;;16.95;66.03
68456;BME280;55437;55.046;38.838;2023-05-24T00:16:46;99926.72;;;16.93;66.47
68456;BME280;55437;55.046;38.838;2023-05-24T00:19:12;99923.38;;;16.91;66.42
68456;BME280;55437;55.046;38.838;2023-05-24T00:21:44;99919.38;;;16.86;66.36
68456;BME280;55437;55.046;38.838;2023-05-24T00:24:11;99928.94;;;16.85;66.58
68456;BME280;55437;55.046;38.838;2023-05-24T00:26:37;99927.34;;;16.83;66.50
68456;BME280;55437;55.046;38.838;2023-05-24T00:29:03;99921.31;;;16.82;66.12
68456;BME280;55437;55.046;38.838;2023-05-24T00:31:30;99909.19;;;16.83;66.35
68456;BME280;55437;55.046;38.838;2023-05-24T00:33:55;99914.38;;;16.83;66.29
68456;BME280;55437;55.046;38.838;2023-05-24T00:36:21;99916.22;;;16.81;66.24
68456;BME280;55437;55.046;38.838;2023-05-24T00:38:47;99915.38;;;16.80;66.38
68456;BME280;55437;55.046;38.838;2023-05-24T00:41:15;99907.88;;;16.76;66.28
68456;BME280;55437;55.046;38.838;2023-05-24T00:43:40;99906.03;;;16.78;66.06
68456;BME280;55437;55.046;38.838;2023-05-24T00:46:19;99903.69;;;16.73;66.09
68456;BME280;55437;55.046;38.838;2023-05-24T00:48:48;99899.41;;;16.72;66.25
68456;BME280;55437;55.046;38.838;2023-05-24T00:51:14;99902.25;;;16.68;66.18
68456;BME280;55437;55.046;38.838;2023-05-24T00:53:41;99898.81;;;16.67;66.24
68456;BME280;55437;55.046;38.838;2023-05-24T00:56:12;99898.19;;;16.64;66.24
68456;BME280;55437;55.046;38.838;2023-05-24T00:58:38;99896.03;;;16.54;66.40
68456;BME280;55437;55.046;38.838;2023-05-24T01:01:04;99894.66;;;16.49;66.32
68456;BME280;55437;55.046;38.838;2023-05-24T01:03:30;99893.06;;;16.46;66.64
68456;BME280;55437;55.046;38.838;2023-05-24T01:06:02;99890.81;;;16.40;66.50
68456;BME280;55437;55.046;38.838;2023-05-24T01:11:33;99897.22;;;16.33;66.64
68456;BME280;55437;55.046;38.838;2023-05-24T01:17:20;99893.63;;;16.20;67.16
68456;BME280;55437;55.046;38.838;2023-05-24T01:19:55;99895.66;;;16.15;67.24
68456;BME280;55437;55.046;38.838;2023-05-24T01:25:44;99897.81;;;16.07;67.56
68456;BME280;55437;55.046;38.838;2023-05-24T01:28:11;99897.22;;;16.02;67.39
68456;BME280;55437;55.046;38.838;2023-05-24T01:30:39;99894.09;;;15.95;67.86
68456;BME280;55437;55.046;38.838;2023-05-24T01:33:06;99896.69;;;15.95;67.88
68456;BME280;55437;55.046;38.838;2023-05-24T01:35:34;99894.28;;;15.92;67.97
68456;BME280;55437;55.046;38.838;2023-05-24T01:38:08;99888.66;;;15.84;68.28
68456;BME280;55437;55.046;38.838;2023-05-24T01:40:38;99879.97;;;15.85;68.21
68456;BME280;55437;55.046;38.838;2023-05-24T01:43:14;99886.16;;;15.82;68.44
68456;BME280;55437;55.046;38.838;2023-05-24T01:48:40;99888.16;;;15.77;68.58
68456;BME280;55437;55.046;38.838;2023-05-24T01:51:15;99883.97;;;15.75;68.77
68456;BME280;55437;55.046;38.838;2023-05-24T01:53:45;99882.38;;;15.72;69.04
68456;BME280;55437;55.046;38.838;2023-05-24T01:56:11;99882.22;;;15.75;68.89
68456;BME280;55437;55.046;38.838;2023-05-24T01:58:39;99885.81;;;15.73;68.79
68456;BME280;55437;55.046;38.838;2023-05-24T02:01:07;99879.63;;;15.75;68.90
68456;BME280;55437;55.046;38.838;2023-05-24T02:03:33;99877.13;;;15.74;68.84
68456;BME280;55437;55.046;38.838;2023-05-24T02:06:01;99891.66;;;15.76;68.75
68456;BME280;55437;55.046;38.838;2023-05-24T02:08:26;99891.59;;;15.78;69.03
68456;BME280;55437;55.046;38.838;2023-05-24T02:10:52;99884.66;;;15.78;69.07
68456;BME280;55437;55.046;38.838;2023-05-24T02:13:18;99879.41;;;15.80;68.78
68456;BME280;55437;55.046;38.838;2023-05-24T02:15:44;99876.75;;;15.81;68.68
68456;BME280;55437;55.046;38.838;2023-05-24T02:18:12;99873.06;;;15.85;68.60
68456;BME280;55437;55.046;38.838;2023-05-24T02:20:57;99872.47;;;15.80;68.79
68456;BME280;55437;55.046;38.838;2023-05-24T02:23:23;99869.88;;;15.80;68.83
68456;BME280;55437;55.046;38.838;2023-05-24T02:25:48;99876.75;;;15.81;68.98
68456;BME280;55437;55.046;38.838;2023-05-24T02:28:15;99870.38;;;15.87;68.84
68456;BME280;55437;55.046;38.838;2023-05-24T02:30:41;99875.34;;;15.92;68.77
68456;BME280;55437;55.046;38.838;2023-05-24T02:33:09;99872.91;;;15.89;68.99
68456;BME280;55437;55.046;38.838;2023-05-24T02:35:35;99871.91;;;15.91;68.91
68456;BME280;55437;55.046;38.838;2023-05-24T02:38:01;99868.41;;;15.92;69.03
68456;BME280;55437;55.046;38.838;2023-05-24T02:40:31;99862.03;;;15.98;68.88
68456;BME280;55437;55.046;38.838;2023-05-24T02:42:56;99857.78;;;15.97;68.83
68456;BME280;55437;55.046;38.838;2023-05-24T02:45:22;99859.53;;;15.96;68.89
68456;BME280;55437;55.046;38.838;2023-05-24T02:47:48;99855.09;;;15.98;69.09
68456;BME280;55437;55.046;38.838;2023-05-24T02:50:14;99857.31;;;16.06;68.80
68456;BME280;55437;55.046;38.838;2023-05-24T02:52:40;99853.44;;;16.13;68.60
68456;BME280;55437;55.046;38.838;2023-05-24T02:55:24;99857.97;;;16.25;68.41
68456;BME280;55437;55.046;38.838;2023-05-24T02:57:51;99857.22;;;16.23;68.49
68456;BME280;55437;55.046;38.838;2023-05-24T03:00:18;99852.53;;;16.30;68.30
68456;BME280;55437;55.046;38.838;2023-05-24T03:02:44;99856.69;;;16.32;68.28
68456;BME280;55437;55.046;38.838;2023-05-24T03:05:13;99853.69;;;16.40;68.18
68456;BME280;55437;55.046;38.838;2023-05-24T03:07:39;99841.97;;;16.33;68.54
68456;BME280;55437;55.046;38.838;2023-05-24T03:10:05;99842.50;;;16.39;68.39
68456;BME280;55437;55.046;38.838;2023-05-24T03:12:31;99846.84;;;16.39;68.37
68456;BME280;55437;55.046;38.838;2023-05-24T03:14:57;99845.66;;;16.44;68.31
68456;BME280;55437;55.046;38.838;2023-05-24T03:17:22;99843.06;;;16.44;68.26
68456;BME280;55437;55.046;38.838;2023-05-24T03:19:49;99845.47;;;16.47;68.21
68456;BME280;55437;55.046;38.838;2023-05-24T03:22:17;99838.09;;;16.55;68.18
68456;BME280;55437;55.046;38.838;2023-05-24T03:24:42;99842.00;;;16.64;68.00
68456;BME280;55437;55.046;38.838;2023-05-24T03:27:11;99843.47;;;16.68;67.77
68456;BME280;55437;55.046;38.838;2023-05-24T03:29:36;99851.25;;;16.52;68.17
68456;BME280;55437;55.046;38.838;2023-05-24T03:32:02;99846.34;;;16.64;68.05
68456;BME280;55437;55.046;38.838;2023-05-24T03:34:29;99842.63;;;16.68;67.99
68456;BME280;55437;55.046;38.838;2023-05-24T03:36:56;99842.13;;;16.77;67.72
68456;BME280;55437;55.046;38.838;2023-05-24T03:39:21;99848.63;;;16.84;67.69
68456;BME280;55437;55.046;38.838;2023-05-24T03:41:54;99850.97;;;16.88;67.63
68456;BME280;55437;55.046;38.838;2023-05-24T03:44:19;99851.59;;;16.92;67.67
68456;BME280;55437;55.046;38.838;2023-05-24T03:46:45;99849.59;;;16.97;67.63
68456;BME280;55437;55.046;38.838;2023-05-24T03:49:11;99856.44;;;16.98;67.36
68456;BME280;55437;55.046;38.838;2023-05-24T03:51:37;99857.38;;;16.97;67.47
68456;BME280;55437;55.046;38.838;2023-05-24T03:54:03;99847.66;;;17.01;67.32
68456;BME280;55437;55.046;38.838;2023-05-24T03:56:28;99849.44;;;17.14;67.34
68456;BME280;55437;55.046;38.838;2023-05-24T03:58:54;99846.38;;;17.22;67.04
68456;BME280;55437;55.046;38.838;2023-05-24T04:01:22;99848.72;;;17.26;66.96
68456;BME280;55437;55.046;38.838;2023-05-24T04:03:48;99852.53;;;17.35;66.65
68456;BME280;55437;55.046;38.838;2023-05-24T04:06:15;99850.22;;;17.45;66.75
68456;BME280;55437;55.046;38.838;2023-05-24T04:08:42;99850.78;;;17.50;66.55
68456;BME280;55437;55.046;38.838;2023-05-24T04:11:08;99842.59;;;17.56;66.32
68456;BME280;55437;55.046;38.838;2023-05-24T04:16:21;99850.03;;;17.76;65.88
68456;BME280;55437;55.046;38.838;2023-05-24T04:19:12;99849.78;;;17.81;65.42
68456;BME280;55437;55.046;38.838;2023-05-24T04:21:38;99855.78;;;17.95;65.36
68456;BME280;55437;55.046;38.838;2023-05-24T04:24:04;99857.16;;;18.01;65.13
68456;BME280;55437;55.046;38.838;2023-05-24T04:29:17;99859.22;;;18.10;64.82
68456;BME280;55437;55.046;38.838;2023-05-24T04:31:43;99865.03;;;18.14;64.57
68456;BME280;55437;55.046;38.838;2023-05-24T04:34:09;99864.84;;;18.17;64.85
68456;BME280;55437;55.046;38.838;2023-05-24T04:36:55;99869.03;;;18.19;64.47
68456;BME280;55437;55.046;38.838;2023-05-24T04:39:20;99871.53;;;18.21;64.28
68456;BME280;55437;55.046;38.838;2023-05-24T04:42:05;99883.53;;;18.36;63.96
68456;BME280;55437;55.046;38.838;2023-05-24T04:44:31;99878.69;;;18.44;63.41
68456;BME280;55437;55.046;38.838;2023-05-24T04:49:41;99886.50;;;18.58;62.96
68456;BME280;55437;55.046;38.838;2023-05-24T04:54:52;99897.78;;;18.57;63.20
68456;BME280;55437;55.046;38.838;2023-05-24T04:57:37;99889.72;;;18.62;63.03
68456;BME280;55437;55.046;38.838;2023-05-24T05:00:04;99892.41;;;18.60;62.93
68456;BME280;55437;55.046;38.838;2023-05-24T05:02:31;99888.97;;;18.60;62.64
68456;BME280;55437;55.046;38.838;2023-05-24T05:04:57;99886.00;;;18.66;62.46
68456;BME280;55437;55.046;38.838;2023-05-24T05:07:23;99899.03;;;18.79;62.42
68456;BME280;55437;55.046;38.838;2023-05-24T05:09:50;99893.41;;;18.85;62.15
68456;BME280;55437;55.046;38.838;2023-05-24T05:12:16;99884.56;;;18.75;62.38
68456;BME280;55437;55.046;38.838;2023-05-24T05:14:42;99887.69;;;18.80;62.47
68456;BME280;55437;55.046;38.838;2023-05-24T05:17:26;99888.66;;;18.91;61.86
68456;BME280;55437;55.046;38.838;2023-05-24T05:19:52;99879.41;;;19.00;61.51
68456;BME280;55437;55.046;38.838;2023-05-24T05:22:17;99883.97;;;18.96;61.71
68456;BME280;55437;55.046;38.838;2023-05-24T05:24:43;99886.28;;;19.01;61.52
68456;BME280;55437;55.046;38.838;2023-05-24T05:27:29;99885.25;;;19.03;61.49
68456;BME280;55437;55.046;38.838;2023-05-24T05:29:55;99885.25;;;19.03;61.48
68456;BME280;55437;55.046;38.838;2023-05-24T05:32:21;99889.34;;;19.08;61.56
68456;BME280;55437;55.046;38.838;2023-05-24T05:34:47;99882.88;;;19.13;61.68
68456;BME280;55437;55.046;38.838;2023-05-24T05:37:31;99883.72;;;19.14;61.54
68456;BME280;55437;55.046;38.838;2023-05-24T05:42:41;99893.13;;;19.41;61.11
68456;BME280;55437;55.046;38.838;2023-05-24T05:45:08;99893.75;;;19.70;60.68
68456;BME280;55437;55.046;38.838;2023-05-24T05:47:53;99891.19;;;20.07;59.76
68456;BME280;55437;55.046;38.838;2023-05-24T05:50:37;99881.88;;;20.28;59.32
68456;BME280;55437;55.046;38.838;2023-05-24T05:53:03;99878.59;;;20.50;58.67
68456;BME280;55437;55.046;38.838;2023-05-24T05:55:29;99874.06;;;20.65;58.19
68456;BME280;55437;55.046;38.838;2023-05-24T05:57:55;99878.91;;;20.69;57.97
68456;BME280;55437;55.046;38.838;2023-05-24T06:00:39;99881.03;;;20.64;57.42
68456;BME280;55437;55.046;38.838;2023-05-24T06:03:05;99876.72;;;20.52;57.33
68456;BME280;55437;55.046;38.838;2023-05-24T06:05:33;99874.09;;;20.52;57.53
68456;BME280;55437;55.046;38.838;2023-05-24T06:08:00;99869.81;;;20.75;57.47
68456;BME280;55437;55.046;38.838;2023-05-24T06:10:25;99871.31;;;21.01;56.58
68456;BME280;55437;55.046;38.838;2023-05-24T06:13:29;99862.16;;;21.31;55.99
68456;BME280;55437;55.046;38.838;2023-05-24T06:15:55;99857.22;;;21.61;55.33
68456;BME280;55437;55.046;38.838;2023-05-24T06:18:23;99870.84;;;21.98;54.76
68456;BME280;55437;55.046;38.838;2023-05-24T06:20:50;99868.09;;;22.33;54.41
68456;BME280;55437;55.046;38.838;2023-05-24T06:23:16;99860.91;;;22.57;53.28
68456;BME280;55437;55.046;38.838;2023-05-24T06:25:41;99868.09;;;22.76;52.95
68456;BME280;55437;55.046;38.838;2023-05-24T06:28:08;99862.94;;;22.86;52.42
68456;BME280;55437;55.046;38.838;2023-05-24T06:30:35;99868.41;;;23.45;50.54
68456;BME280;55437;55.046;38.838;2023-05-24T06:33:01;99863.00;;;24.48;49.43
68456;BME280;55437;55.046;38.838;2023-05-24T06:35:27;99869.25;;;25.51;47.14
68456;BME280;55437;55.046;38.838;2023-05-24T06:37:53;99857.22;;;26.40;45.96
68456;BME280;55437;55.046;38.838;2023-05-24T06:43:03;99857.91;;;27.47;42.86
68456;BME280;55437;55.046;38.838;2023-05-24T06:45:30;99863.47;;;27.62;41.75
68456;BME280;55437;55.046;38.838;2023-05-24T06:47:57;99860.25;;;27.76;40.84
68456;BME280;55437;55.046;38.838;2023-05-24T06:50:24;99861.72;;;28.21;40.52
68456;BME280;55437;55.046;38.838;2023-05-24T06:52:51;99855.22;;;28.74;38.80
68456;BME280;55437;55.046;38.838;2023-05-24T06:55:18;99861.50;;;29.05;37.85
68456;BME280;55437;55.046;38.838;2023-05-24T07:00:47;99851.22;;;28.70;38.26
68456;BME280;55437;55.046;38.838;2023-05-24T07:03:14;99857.72;;;28.83;37.82
68456;BME280;55437;55.046;38.838;2023-05-24T07:05:43;99850.28;;;28.95;37.75
68456;BME280;55437;55.046;38.838;2023-05-24T07:08:27;99852.41;;;28.91;38.14
68456;BME280;55437;55.046;38.838;2023-05-24T07:10:53;99840.00;;;29.00;37.90
68456;BME280;55437;55.046;38.838;2023-05-24T07:13:39;99851.22;;;29.43;37.01
68456;BME280;55437;55.046;38.838;2023-05-24T07:16:05;99843.03;;;29.68;36.84
68456;BME280;55437;55.046;38.838;2023-05-24T07:18:33;99854.44;;;30.08;36.55
68456;BME280;55437;55.046;38.838;2023-05-24T07:20:58;99849.78;;;30.10;35.81
68456;BME280;55437;55.046;38.838;2023-05-24T07:23:25;99850.88;;;30.47;35.74
68456;BME280;55437;55.046;38.838;2023-05-24T07:25:51;99848.69;;;29.96;35.86
68456;BME280;55437;55.046;38.838;2023-05-24T07:28:17;99848.38;;;29.91;35.32
68456;BME280;55437;55.046;38.838;2023-05-24T07:30:44;99840.75;;;30.27;34.99
68456;BME280;55437;55.046;38.838;2023-05-24T07:33:10;99849.78;;;30.87;34.31
68456;BME280;55437;55.046;38.838;2023-05-24T07:35:36;99845.19;;;30.58;34.94
68456;BME280;55437;55.046;38.838;2023-05-24T07:38:04;99845.56;;;29.85;35.49
68456;BME280;55437;55.046;38.838;2023-05-24T07:40:30;99835.31;;;29.90;35.43
68456;BME280;55437;55.046;38.838;2023-05-24T07:42:56;99843.81;;;29.77;36.10
68456;BME280;55437;55.046;38.838;2023-05-24T07:45:23;99837.03;;;29.03;36.92
68456;BME280;55437;55.046;38.838;2023-05-24T07:47:48;99840.44;;;28.39;38.14
68456;BME280;55437;55.046;38.838;2023-05-24T07:50:14;99847.41;;;28.64;38.38
68456;BME280;55437;55.046;38.838;2023-05-24T07:52:40;99854.53;;;27.97;38.42
68456;BME280;55437;55.046;38.838;2023-05-24T07:55:06;99846.09;;;27.25;39.23
68456;BME280;55437;55.046;38.838;2023-05-24T07:57:32;99841.34;;;26.68;40.27
68456;BME280;55437;55.046;38.838;2023-05-24T07:59:58;99838.84;;;27.28;39.61
68456;BME280;55437;55.046;38.838;2023-05-24T08:02:24;99847.00;;;28.10;38.79
68456;BME280;55437;55.046;38.838;2023-05-24T08:04:50;99835.28;;;28.13;38.44
68456;BME280;55437;55.046;38.838;2023-05-24T08:07:16;99834.06;;;28.90;36.84
68456;BME280;55437;55.046;38.838;2023-05-24T08:09:42;99841.81;;;28.67;36.71
68456;BME280;55437;55.046;38.838;2023-05-24T08:12:08;99834.50;;;28.28;37.62
68456;BME280;55437;55.046;38.838;2023-05-24T08:14:34;99841.66;;;28.68;37.48
68456;BME280;55437;55.046;38.838;2023-05-24T08:17:00;99844.34;;;28.85;37.51
68456;BME280;55437;55.046;38.838;2023-05-24T08:19:26;99839.63;;;29.27;36.29
68456;BME280;55437;55.046;38.838;2023-05-24T08:22:11;99846.72;;;29.90;35.45
68456;BME280;55437;55.046;38.838;2023-05-24T08:24:37;99849.88;;;29.38;36.48
68456;BME280;55437;55.046;38.838;2023-05-24T08:27:03;99847.38;;;29.37;36.28
68456;BME280;55437;55.046;38.838;2023-05-24T08:29:32;99841.91;;;29.55;36.52
68456;BME280;55437;55.046;38.838;2023-05-24T08:31:57;99847.59;;;28.54;37.24
68456;BME280;55437;55.046;38.838;2023-05-24T08:34:24;99856.22;;;27.12;39.16
68456;BME280;55437;55.046;38.838;2023-05-24T08:36:49;99847.97;;;26.36;40.44
68456;BME280;55437;55.046;38.838;2023-05-24T08:39:15;99850.16;;;25.96;41.21
68456;BME280;55437;55.046;38.838;2023-05-24T08:41:41;99849.34;;;25.86;41.65
68456;BME280;55437;55.046;38.838;2023-05-24T08:44:07;99853.81;;;25.75;41.59
68456;BME280;55437;55.046;38.838;2023-05-24T08:46:37;99850.56;;;25.64;42.36
68456;BME280;55437;55.046;38.838;2023-05-24T08:49:03;99860.09;;;25.65;42.48
68456;BME280;55437;55.046;38.838;2023-05-24T08:51:30;99851.38;;;25.64;43.01
68456;BME280;55437;55.046;38.838;2023-05-24T08:53:59;99850.00;;;25.70;42.74
68456;BME280;55437;55.046;38.838;2023-05-24T08:56:26;99859.66;;;25.97;41.79
68456;BME280;55437;55.046;38.838;2023-05-24T08:58:55;99856.25;;;26.41;41.92
68456;BME280;55437;55.046;38.838;2023-05-24T09:01:23;99859.84;;;26.58;41.65
68456;BME280;55437;55.046;38.838;2023-05-24T09:03:50;99867.44;;;26.61;41.70
68456;BME280;55437;55.046;38.838;2023-05-24T09:06:17;99867.44;;;26.61;41.88
68456;BME280;55437;55.046;38.838;2023-05-24T09:08:44;99866.78;;;26.95;42.26
68456;BME280;55437;55.046;38.838;2023-05-24T09:11:10;99868.41;;;27.13;41.39
68456;BME280;55437;55.046;38.838;2023-05-24T09:13:36;99867.22;;;27.08;40.77
68456;BME280;55437;55.046;38.838;2023-05-24T09:16:04;99867.19;;;27.25;41.51
68456;BME280;55437;55.046;38.838;2023-05-24T09:18:30;99861.34;;;27.40;41.58
68456;BME280;55437;55.046;38.838;2023-05-24T09:20:56;99856.00;;;27.32;40.59
68456;BME280;55437;55.046;38.838;2023-05-24T09:23:23;99850.50;;;26.81;40.32
68456;BME280;55437;55.046;38.838;2023-05-24T09:26:09;99860.16;;;26.10;41.48
68456;BME280;55437;55.046;38.838;2023-05-24T09:28:36;99858.06;;;25.86;41.59
68456;BME280;55437;55.046;38.838;2023-05-24T09:31:02;99861.06;;;25.64;42.43
68456;BME280;55437;55.046;38.838;2023-05-24T09:33:29;99863.03;;;25.52;42.95
68456;BME280;55437;55.046;38.838;2023-05-24T09:36:01;99861.34;;;25.70;43.52
68456;BME280;55437;55.046;38.838;2023-05-24T09:38:47;99873.97;;;25.94;43.43
68456;BME280;55437;55.046;38.838;2023-05-24T09:41:12;99876.06;;;26.18;42.92
68456;BME280;55437;55.046;38.838;2023-05-24T09:43:47;99875.66;;;26.40;43.23
68456;BME280;55437;55.046;38.838;2023-05-24T09:46:17;99879.44;;;26.56;42.85
68456;BME280;55437;55.046;38.838;2023-05-24T09:49:08;99886.78;;;26.70;43.61
68456;BME280;55437;55.046;38.838;2023-05-24T09:51:37;99888.22;;;26.64;42.86
68456;BME280;55437;55.046;38.838;2023-05-24T09:54:04;99896.25;;;26.45;43.14
68456;BME280;55437;55.046;38.838;2023-05-24T09:56:32;99897.69;;;26.39;43.28
68456;BME280;55437;55.046;38.838;2023-05-24T09:58:58;99896.09;;;26.46;43.80
68456;BME280;55437;55.046;38.838;2023-05-24T10:01:29;99903.88;;;26.48;43.72
68456;BME280;55437;55.046;38.838;2023-05-24T10:03:57;99900.88;;;26.43;43.81
68456;BME280;55437;55.046;38.838;2023-05-24T10:06:24;99904.22;;;26.35;44.10
68456;BME280;55437;55.046;38.838;2023-05-24T10:08:51;99910.97;;;26.10;44.23
68456;BME280;55437;55.046;38.838;2023-05-24T10:11:19;99916.06;;;25.84;44.84
68456;BME280;55437;55.046;38.838;2023-05-24T10:13:46;99914.41;;;25.46;45.33
68456;BME280;55437;55.046;38.838;2023-05-24T10:16:12;99915.41;;;25.17;45.97
68456;BME280;55437;55.046;38.838;2023-05-24T10:18:38;99914.97;;;24.92;46.60
68456;BME280;55437;55.046;38.838;2023-05-24T10:21:05;99917.03;;;24.79;47.04
68456;BME280;55437;55.046;38.838;2023-05-24T10:23:33;99912.47;;;24.62;47.39
68456;BME280;55437;55.046;38.838;2023-05-24T10:26:07;99916.19;;;24.59;47.37
68456;BME280;55437;55.046;38.838;2023-05-24T10:28:45;99919.09;;;24.75;47.70
68456;BME280;55437;55.046;38.838;2023-05-24T10:31:17;99926.34;;;25.02;47.22
68456;BME280;55437;55.046;38.838;2023-05-24T10:33:46;99928.00;;;25.23;47.49
68456;BME280;55437;55.046;38.838;2023-05-24T10:36:16;99925.75;;;25.37;46.89
68456;BME280;55437;55.046;38.838;2023-05-24T10:38:47;99931.13;;;25.45;45.97
68456;BME280;55437;55.046;38.838;2023-05-24T10:41:16;99930.00;;;25.48;45.99
68456;BME280;55437;55.046;38.838;2023-05-24T10:43:45;99930.84;;;25.58;46.50
68456;BME280;55437;55.046;38.838;2023-05-24T10:46:12;99935.81;;;25.61;46.48
68456;BME280;55437;55.046;38.838;2023-05-24T10:48:39;99936.38;;;25.65;46.31
68456;BME280;55437;55.046;38.838;2023-05-24T10:51:37;99937.06;;;25.57;46.57
68456;BME280;55437;55.046;38.838;2023-05-24T10:54:15;99939.38;;;25.60;47.12
68456;BME280;55437;55.046;38.838;2023-05-24T10:56:44;99933.97;;;25.81;47.08
68456;BME280;55437;55.046;38.838;2023-05-24T10:59:29;99933.19;;;25.98;46.25
68456;BME280;55437;55.046;38.838;2023-05-24T11:01:57;99938.13;;;26.11;45.76
68456;BME280;55437;55.046;38.838;2023-05-24T11:04:25;99936.09;;;26.05;45.87
68456;BME280;55437;55.046;38.838;2023-05-24T11:07:00;99935.16;;;25.96;45.73
68456;BME280;55437;55.046;38.838;2023-05-24T11:09:27;99941.91;;;25.99;45.61
68456;BME280;55437;55.046;38.838;2023-05-24T11:11:58;99935.69;;;26.00;45.41
68456;BME280;55437;55.046;38.838;2023-05-24T11:14:28;99936.25;;;26.03;45.66
68456;BME280;55437;55.046;38.838;2023-05-24T11:16:56;99938.88;;;26.03;45.85
68456;BME280;55437;55.046;38.838;2023-05-24T11:19:27;99941.44;;;26.13;45.78
68456;BME280;55437;55.046;38.838;2023-05-24T11:21:55;99940.13;;;26.27;45.33
68456;BME280;55437;55.046;38.838;2023-05-24T11:24:23;99935.53;;;26.38;45.13
68456;BME280;55437;55.046;38.838;2023-05-24T11:26:49;99939.53;;;26.42;44.80
68456;BME280;55437;55.046;38.838;2023-05-24T11:29:16;99936.00;;;26.24;44.70
68456;BME280;55437;55.046;38.838;2023-05-24T11:32:01;99932.16;;;26.18;44.83
68456;BME280;55437;55.046;38.838;2023-05-24T11:34:31;99941.53;;;26.31;45.38
68456;BME280;55437;55.046;38.838;2023-05-24T11:36:58;99939.53;;;26.42;45.48
68456;BME280;55437;55.046;38.838;2023-05-24T11:39:31;99933.53;;;26.50;44.64
68456;BME280;55437;55.046;38.838;2023-05-24T11:41:58;99931.13;;;26.57;44.49
68456;BME280;55437;55.046;38.838;2023-05-24T11:44:24;99935.09;;;26.61;44.71
68456;BME280;55437;55.046;38.838;2023-05-24T11:47:01;99932.31;;;26.62;44.11
68456;BME280;55437;55.046;38.838;2023-05-24T11:49:28;99932.31;;;26.62;44.45
68456;BME280;55437;55.046;38.838;2023-05-24T11:51:55;99932.75;;;26.58;45.21
68456;BME280;55437;55.046;38.838;2023-05-24T11:54:22;99928.50;;;26.57;45.37
68456;BME280;55437;55.046;38.838;2023-05-24T11:56:47;99931.56;;;26.52;44.74
68456;BME280;55437;55.046;38.838;2023-05-24T11:59:22;99925.00;;;26.38;44.68
68456;BME280;55437;55.046;38.838;2023-05-24T12:01:55;99937.09;;;26.31;44.73
68456;BME280;55437;55.046;38.838;2023-05-24T12:04:22;99927.94;;;26.26;44.65
68456;BME280;55437;55.046;38.838;2023-05-24T12:06:48;99925.88;;;26.29;45.30
68456;BME280;55437;55.046;38.838;2023-05-24T12:09:14;99923.50;;;26.26;45.07
68456;BME280;55437;55.046;38.838;2023-05-24T12:11:42;99922.28;;;26.20;44.92
68456;BME280;55437;55.046;38.838;2023-05-24T12:14:15;99923.94;;;26.22;44.93
68456;BME280;55437;55.046;38.838;2023-05-24T12:16:42;99917.19;;;26.19;45.21
68456;BME280;55437;55.046;38.838;2023-05-24T12:19:15;99921.22;;;26.13;45.13
68456;BME280;55437;55.046;38.838;2023-05-24T12:21:41;99918.44;;;26.15;45.07
68456;BME280;55437;55.046;38.838;2023-05-24T12:24:08;99916.91;;;25.85;45.61
68456;BME280;55437;55.046;38.838;2023-05-24T12:26:45;99916.78;;;25.87;45.49
68456;BME280;55437;55.046;38.838;2023-05-24T12:29:12;99924.06;;;26.02;45.46
68456;BME280;55437;55.046;38.838;2023-05-24T12:31:39;99922.44;;;25.92;45.34
68456;BME280;55437;55.046;38.838;2023-05-24T12:34:13;99926.44;;;25.96;45.19
68456;BME280;55437;55.046;38.838;2023-05-24T12:36:40;99920.44;;;26.03;45.19
68456;BME280;55437;55.046;38.838;2023-05-24T12:39:22;99923.44;;;26.08;45.40
68456;BME280;55437;55.046;38.838;2023-05-24T12:41:52;99915.47;;;26.00;45.14
68456;BME280;55437;55.046;38.838;2023-05-24T12:44:33;99919.41;;;25.87;44.83
68456;BME280;55437;55.046;38.838;2023-05-24T12:47:00;99916.06;;;25.84;45.09
68456;BME280;55437;55.046;38.838;2023-05-24T12:49:26;99908.59;;;25.90;45.19
68456;BME280;55437;55.046;38.838;2023-05-24T12:51:54;99912.34;;;25.87;44.72
68456;BME280;55437;55.046;38.838;2023-05-24T12:54:24;99916.66;;;25.78;45.00
68456;BME280;55437;55.046;38.838;2023-05-24T12:56:52;99916.56;;;25.70;45.16
68456;BME280;55437;55.046;38.838;2023-05-24T12:59:18;99912.69;;;25.65;45.46
68456;BME280;55437;55.046;38.838;2023-05-24T13:01:44;99908.69;;;25.61;45.16
68456;BME280;55437;55.046;38.838;2023-05-24T13:04:17;99904.81;;;25.65;46.01
68456;BME280;55437;55.046;38.838;2023-05-24T13:06:45;99909.25;;;25.64;46.55
68456;BME280;55437;55.046;38.838;2023-05-24T13:09:10;99907.72;;;25.62;46.31
68456;BME280;55437;55.046;38.838;2023-05-24T13:11:38;99919.34;;;25.59;45.84
68456;BME280;55437;55.046;38.838;2023-05-24T13:14:04;99908.41;;;25.54;45.98
68456;BME280;55437;55.046;38.838;2023-05-24T13:16:30;99910.91;;;25.56;46.35
68456;BME280;55437;55.046;38.838;2023-05-24T13:18:57;99908.72;;;25.41;46.58
68456;BME280;55437;55.046;38.838;2023-05-24T13:21:23;99919.13;;;25.33;46.71
68456;BME280;55437;55.046;38.838;2023-05-24T13:23:49;99913.19;;;25.22;46.74
68456;BME280;55437;55.046;38.838;2023-05-24T13:26:16;99911.38;;;25.12;46.90
68456;BME280;55437;55.046;38.838;2023-05-24T13:28:43;99911.00;;;25.07;47.24
68456;BME280;55437;55.046;38.838;2023-05-24T13:31:08;99916.25;;;25.07;47.96